Terminal Aerodrome Forecast
Issued by NWS Sterling, VA

Home | Current Version | Previous Version | Text Only | Print | Product List | Glossary On
Versions: 1 2 3 4 5 6 7 8 9 10 11 12 13 14 15 16 17 18 19 20 21 22 23 24 25 26 27
881
FTUS41 KLWX 220914 AAA
TAFIAD
TAF AMD
KIAD 220914Z 2209/2312 04003KT 1SM -DZ BR OVC002
     FM221100 04003KT 1/4SM -DZ FG OVC002
     FM221500 05005KT 2SM -DZ BR OVC003
     FM221800 05006KT 5SM -RADZ BKN008 OVC015
     FM230000 08010G17KT 5SM -RA BKN008 OVC015
     FM230800 06015G25KT 5SM -RA BKN008 OVC015=

USA.gov is the U.S. government's official web portal to all federal, state and local government web resources and services.